createdAt,value
2022-12-27T00:00:24.989Z,99136.59
2022-12-27T00:02:51.677Z,99141.06
2022-12-27T00:05:18.387Z,99143.41
2022-12-27T00:07:45.001Z,99155.53
2022-12-27T00:10:11.728Z,99154.47
2022-12-27T00:12:38.265Z,99166.84
2022-12-27T00:15:05.079Z,99164.78
2022-12-27T00:17:32.093Z,99159.00
2022-12-27T00:19:58.723Z,99176.78
2022-12-27T00:22:25.248Z,99182.41
2022-12-27T00:24:51.793Z,99176.41
2022-12-27T00:27:18.330Z,99187.84
2022-12-27T00:29:45.105Z,99178.69
2022-12-27T00:32:14.226Z,99184.41
2022-12-27T00:34:43.435Z,99184.50
2022-12-27T00:37:09.957Z,99186.91
2022-12-27T00:39:36.832Z,99186.00
2022-12-27T00:42:03.868Z,99189.47
2022-12-27T00:44:30.487Z,99200.09
2022-12-27T00:46:58.363Z,99199.41
2022-12-27T00:49:24.913Z,99206.31
2022-12-27T00:51:51.602Z,99218.00
2022-12-27T00:54:18.150Z,99216.09
2022-12-27T00:56:48.346Z,99218.72
2022-12-27T00:59:14.883Z,99228.38
2022-12-27T01:01:41.673Z,99231.41
2022-12-27T01:04:08.576Z,99247.91
2022-12-27T01:06:35.174Z,99249.81
2022-12-27T01:09:01.976Z,99246.25
2022-12-27T01:11:28.961Z,99253.47
2022-12-27T01:13:56.526Z,99257.16
2022-12-27T01:16:23.368Z,99260.41
2022-12-27T01:18:50.060Z,99266.38
2022-12-27T01:21:17.415Z,99268.69
2022-12-27T01:23:44.069Z,99283.22
2022-12-27T01:26:11.970Z,99281.97
2022-12-27T01:28:39.197Z,99292.31
2022-12-27T01:31:09.393Z,99301.31
2022-12-27T01:33:36.083Z,99301.84
2022-12-27T01:36:09.758Z,99308.09
2022-12-27T01:38:36.309Z,99317.13
2022-12-27T01:41:22.823Z,99317.31
2022-12-27T01:43:49.353Z,99324.63
2022-12-27T01:46:15.988Z,99317.09
2022-12-27T01:48:42.536Z,99321.78
2022-12-27T01:51:09.087Z,99324.06
2022-12-27T01:53:37.662Z,99324.72
2022-12-27T01:56:05.390Z,99329.97
2022-12-27T01:58:42.548Z,99326.31
2022-12-27T02:01:16.426Z,99331.22
2022-12-27T02:04:03.244Z,99338.81
2022-12-27T02:06:29.756Z,99343.78
2022-12-27T02:09:03.421Z,99337.78
2022-12-27T02:11:49.659Z,99344.97
2022-12-27T02:14:16.566Z,99354.94
2022-12-27T02:16:43.128Z,99353.41
2022-12-27T02:19:17.691Z,99358.25
2022-12-27T02:21:44.144Z,99358.72
2022-12-27T02:24:43.085Z,99357.50
2022-12-27T02:27:12.493Z,99359.94
2022-12-27T02:29:41.788Z,99360.78
2022-12-27T02:32:20.819Z,99364.81
2022-12-27T02:35:02.283Z,99364.63
2022-12-27T02:37:29.571Z,99366.09
2022-12-27T02:39:56.109Z,99367.16
2022-12-27T02:42:41.389Z,99363.88
2022-12-27T02:45:32.583Z,99360.84
2022-12-27T02:48:34.661Z,99363.09
2022-12-27T02:51:24.510Z,99365.72
2022-12-27T02:53:50.969Z,99360.28
2022-12-27T02:56:39.466Z,99358.03
2022-12-27T02:59:14.496Z,99367.81
2022-12-27T03:02:37.960Z,99370.28
2022-12-27T03:05:07.463Z,99373.34
2022-12-27T03:07:46.039Z,99377.81
2022-12-27T03:10:42.815Z,99375.63
2022-12-27T03:13:28.370Z,99393.59
2022-12-27T03:16:04.050Z,99382.38
2022-12-27T03:18:42.725Z,99382.28
2022-12-27T03:21:28.749Z,99379.59
2022-12-27T03:24:14.086Z,99379.03
2022-12-27T03:26:42.546Z,99379.84
2022-12-27T03:29:28.782Z,99378.44
2022-12-27T03:32:14.580Z,99389.75
2022-12-27T03:34:42.026Z,99380.81
2022-12-27T03:37:33.482Z,99385.56
2022-12-27T03:40:06.338Z,99388.78
2022-12-27T03:42:52.361Z,99389.44
2022-12-27T03:45:20.534Z,99394.84
2022-12-27T03:47:50.159Z,99397.28
2022-12-27T03:50:25.266Z,99401.25
2022-12-27T03:52:53.637Z,99403.94
2022-12-27T03:55:20.417Z,99401.19
2022-12-27T03:57:46.909Z,99397.03
2022-12-27T04:00:13.781Z,99403.34
2022-12-27T04:02:40.500Z,99408.56
2022-12-27T04:05:07.408Z,99402.50
2022-12-27T04:07:33.912Z,99409.69
2022-12-27T04:10:19.206Z,99400.25
2022-12-27T04:13:04.505Z,99407.75
2022-12-27T04:15:49.964Z,99404.31
2022-12-27T04:18:35.463Z,99404.13
2022-12-27T04:21:20.453Z,99401.50
2022-12-27T04:24:05.648Z,99407.16
2022-12-27T04:26:50.999Z,99399.56
2022-12-27T04:29:36.350Z,99408.06
2022-12-27T04:32:21.687Z,99402.06
2022-12-27T04:34:48.217Z,99406.09
2022-12-27T04:37:15.835Z,99404.59
2022-12-27T04:39:42.701Z,99403.19
2022-12-27T04:42:28.255Z,99399.22
2022-12-27T04:45:15.605Z,99402.44
2022-12-27T04:48:01.213Z,99401.44
2022-12-27T04:50:50.340Z,99406.16
2022-12-27T04:53:39.130Z,99400.75
2022-12-27T04:56:06.080Z,99408.19
2022-12-27T04:58:32.736Z,99412.16
2022-12-27T05:01:18.842Z,99406.31
2022-12-27T05:03:45.897Z,99399.06
2022-12-27T05:06:12.454Z,99410.53
2022-12-27T05:08:57.855Z,99413.31
2022-12-27T05:11:42.812Z,99415.34
2022-12-27T05:14:10.865Z,99417.13
2022-12-27T05:16:39.137Z,99416.59
2022-12-27T05:19:06.126Z,99419.47
2022-12-27T05:21:36.898Z,99428.94
2022-12-27T05:24:22.113Z,99427.66
2022-12-27T05:26:48.717Z,99433.91
2022-12-27T05:29:15.390Z,99432.53
2022-12-27T05:31:41.925Z,99438.63
2022-12-27T05:34:08.453Z,99433.25
2022-12-27T05:36:34.994Z,99439.31
2022-12-27T05:39:01.519Z,99444.31
2022-12-27T05:41:28.154Z,99438.38
2022-12-27T05:43:54.744Z,99449.53
2022-12-27T05:46:21.706Z,99453.06
2022-12-27T05:48:48.346Z,99451.97
2022-12-27T05:51:16.065Z,99461.66
2022-12-27T05:53:42.678Z,99452.47
2022-12-27T05:56:09.433Z,99451.47
2022-12-27T05:58:35.949Z,99460.50
2022-12-27T06:01:07.177Z,99455.97
2022-12-27T06:03:33.755Z,99455.97
2022-12-27T06:06:01.840Z,99461.44
2022-12-27T06:08:28.742Z,99459.00
2022-12-27T06:11:05.513Z,99461.06
2022-12-27T06:13:32.078Z,99451.59
2022-12-27T06:16:02.162Z,99462.00
2022-12-27T06:18:29.041Z,99458.38
2022-12-27T06:20:55.572Z,99457.44
2022-12-27T06:23:22.088Z,99464.53
2022-12-27T06:25:48.674Z,99460.00
2022-12-27T06:28:15.204Z,99469.44
2022-12-27T06:30:41.744Z,99470.88
2022-12-27T06:33:08.237Z,99462.19
2022-12-27T06:35:35.124Z,99470.47
2022-12-27T06:38:01.714Z,99464.47
2022-12-27T06:40:28.213Z,99469.34
2022-12-27T06:42:54.745Z,99473.66
2022-12-27T06:45:21.484Z,99477.53
2022-12-27T06:47:48.009Z,99476.16
2022-12-27T06:50:14.524Z,99475.50
2022-12-27T06:52:41.047Z,99476.00
2022-12-27T06:55:07.781Z,99476.34
2022-12-27T06:57:34.343Z,99475.44
2022-12-27T07:00:00.918Z,99482.16
2022-12-27T07:02:27.608Z,99473.75
2022-12-27T07:04:54.351Z,99484.13
2022-12-27T07:07:20.982Z,99484.63
2022-12-27T07:09:47.624Z,99490.38
2022-12-27T07:12:14.173Z,99491.22
2022-12-27T07:14:40.743Z,99494.44
2022-12-27T07:17:07.418Z,99503.13
2022-12-27T07:19:34.024Z,99498.81
2022-12-27T07:22:00.519Z,99500.44
2022-12-27T07:24:27.046Z,99494.50
2022-12-27T07:26:53.991Z,99503.13
2022-12-27T07:29:20.811Z,99496.28
2022-12-27T07:31:47.586Z,99500.25
2022-12-27T07:34:14.190Z,99504.38
2022-12-27T07:36:41.127Z,99502.03
2022-12-27T07:39:07.907Z,99495.53
2022-12-27T07:41:35.714Z,99504.13
2022-12-27T07:44:02.339Z,99506.75
2022-12-27T07:46:28.989Z,99512.34
2022-12-27T07:48:56.142Z,99515.53
2022-12-27T07:51:22.988Z,99513.34
2022-12-27T07:53:50.085Z,99517.72
2022-12-27T07:56:25.189Z,99516.44
2022-12-27T07:58:52.828Z,99515.59
2022-12-27T08:01:20.022Z,99501.91
2022-12-27T08:03:47.372Z,99503.91
2022-12-27T08:06:32.477Z,99507.88
2022-12-27T08:08:59.497Z,99507.25
2022-12-27T08:11:30.229Z,99508.84
2022-12-27T08:13:56.761Z,99502.00
2022-12-27T08:16:23.855Z,99499.75
2022-12-27T08:18:50.491Z,99505.78
2022-12-27T08:21:17.058Z,99501.28
2022-12-27T08:23:43.759Z,99498.41
2022-12-27T08:26:10.348Z,99507.88
2022-12-27T08:28:36.909Z,99509.81
2022-12-27T08:31:05.485Z,99514.41
2022-12-27T08:33:32.087Z,99508.16
2022-12-27T08:35:59.015Z,99513.44
2022-12-27T08:38:25.569Z,99514.75
2022-12-27T08:40:52.068Z,99510.63
2022-12-27T08:43:18.667Z,99514.38
2022-12-27T08:45:45.244Z,99516.56
2022-12-27T08:48:11.899Z,99510.53
2022-12-27T08:50:38.608Z,99517.31
2022-12-27T08:53:06.355Z,99526.66
2022-12-27T08:55:33.444Z,99522.28
2022-12-27T08:58:06.128Z,99523.00
2022-12-27T09:00:36.708Z,99529.19
2022-12-27T09:03:03.523Z,99526.09
2022-12-27T09:05:30.343Z,99531.34
2022-12-27T09:07:57.941Z,99525.91
2022-12-27T09:10:24.587Z,99525.16
2022-12-27T09:12:51.153Z,99525.91
2022-12-27T09:15:17.778Z,99517.47
2022-12-27T09:17:44.317Z,99525.97
2022-12-27T09:20:12.507Z,99520.44
2022-12-27T09:22:39.330Z,99525.69
2022-12-27T09:25:06.129Z,99533.56
2022-12-27T09:27:33.788Z,99534.78
2022-12-27T09:30:00.815Z,99530.09
2022-12-27T09:32:28.582Z,99528.88
2022-12-27T09:34:59.149Z,99539.34
2022-12-27T09:37:28.717Z,99541.97
2022-12-27T09:39:57.227Z,99542.91
2022-12-27T09:42:49.836Z,99543.47
2022-12-27T09:45:16.923Z,99550.75
2022-12-27T09:47:48.384Z,99550.38
2022-12-27T09:50:26.090Z,99560.84
2022-12-27T09:52:58.740Z,99546.47
2022-12-27T09:55:45.680Z,99549.63
2022-12-27T09:58:24.278Z,99544.59
2022-12-27T10:00:51.160Z,99535.06
2022-12-27T10:03:19.866Z,99534.00
2022-12-27T10:05:46.711Z,99534.19
2022-12-27T10:08:21.505Z,99540.00
2022-12-27T10:11:34.382Z,99538.81
2022-12-27T10:14:20.820Z,99541.69
2022-12-27T10:16:53.802Z,99544.09
2022-12-27T10:19:52.904Z,99544.81
2022-12-27T10:22:25.280Z,99540.00
2022-12-27T10:24:56.625Z,99534.63
2022-12-27T10:27:24.411Z,99530.19
2022-12-27T10:29:58.012Z,99531.47
2022-12-27T10:32:30.544Z,99521.88
2022-12-27T10:34:58.099Z,99523.88
2022-12-27T10:37:24.833Z,99521.47
2022-12-27T10:39:54.156Z,99524.16
2022-12-27T10:42:59.664Z,99526.72
2022-12-27T10:45:42.633Z,99522.03
2022-12-27T10:48:15.107Z,99522.25
2022-12-27T10:50:47.484Z,99519.19
2022-12-27T10:53:32.952Z,99523.84
2022-12-27T10:56:18.285Z,99518.97
2022-12-27T10:58:54.722Z,99518.91
2022-12-27T11:01:23.468Z,99513.09
2022-12-27T11:03:50.584Z,99518.25
2022-12-27T11:06:24.881Z,99515.41
2022-12-27T11:08:52.457Z,99514.78
2022-12-27T11:11:23.092Z,99507.47
2022-12-27T11:13:50.068Z,99510.00
2022-12-27T11:16:28.445Z,99512.31
2022-12-27T11:18:55.980Z,99510.50
2022-12-27T11:21:27.673Z,99504.44
2022-12-27T11:24:01.196Z,99510.72
2022-12-27T11:26:28.637Z,99512.16
2022-12-27T11:28:56.184Z,99517.25
2022-12-27T11:31:44.739Z,99512.88
2022-12-27T11:34:17.868Z,99509.78
2022-12-27T11:36:45.962Z,99511.53
2022-12-27T11:39:33.540Z,99502.81
2022-12-27T11:42:00.152Z,99504.41
2022-12-27T11:44:30.249Z,99505.47
2022-12-27T11:46:59.575Z,99500.97
2022-12-27T11:49:32.012Z,99497.03
2022-12-27T11:51:59.217Z,99491.03
2022-12-27T11:54:46.495Z,99492.09
2022-12-27T11:57:18.730Z,99488.47
2022-12-27T11:59:56.758Z,99481.97
2022-12-27T12:02:26.384Z,99485.41
2022-12-27T12:04:55.709Z,99486.97
2022-12-27T12:07:41.860Z,99493.63
2022-12-27T12:10:11.484Z,99487.97
2022-12-27T12:12:51.126Z,99485.16
2022-12-27T12:15:30.343Z,99486.00
2022-12-27T12:17:59.553Z,99490.56
2022-12-27T12:20:36.757Z,99491.03
2022-12-27T12:23:07.103Z,99488.88
2022-12-27T12:26:06.796Z,99478.00
2022-12-27T12:29:01.250Z,99473.53
2022-12-27T12:31:29.480Z,99473.06
2022-12-27T12:34:08.888Z,99470.16
2022-12-27T12:36:52.833Z,99467.13
2022-12-27T12:39:28.893Z,99472.47
2022-12-27T12:41:55.606Z,99475.47
2022-12-27T12:44:41.275Z,99470.91
2022-12-27T12:47:08.719Z,99476.19
2022-12-27T12:49:45.743Z,99472.47
2022-12-27T12:52:31.571Z,99472.34
2022-12-27T12:55:16.951Z,99469.81
2022-12-27T12:58:02.238Z,99477.63
2022-12-27T13:00:36.448Z,99468.75
2022-12-27T13:03:21.783Z,99465.88
2022-12-27T13:06:01.026Z,99472.22
2022-12-27T13:08:49.374Z,99472.00
2022-12-27T13:11:22.613Z,99460.22
2022-12-27T13:13:52.237Z,99462.50
2022-12-27T13:16:37.711Z,99463.59
2022-12-27T13:19:24.187Z,99457.94
2022-12-27T13:21:59.004Z,99464.53
2022-12-27T13:24:30.129Z,99460.22
2022-12-27T13:27:06.031Z,99464.44
2022-12-27T13:29:42.141Z,99463.47
2022-12-27T13:32:28.077Z,99450.75
2022-12-27T13:34:58.855Z,99448.13
2022-12-27T13:37:39.270Z,99451.22
2022-12-27T13:40:06.443Z,99450.88
2022-12-27T13:42:39.713Z,99446.81
2022-12-27T13:45:22.157Z,99441.28
2022-12-27T13:47:51.662Z,99439.47
2022-12-27T13:50:19.745Z,99441.88
2022-12-27T13:53:12.487Z,99433.69
2022-12-27T13:55:41.951Z,99432.38
2022-12-27T13:58:27.585Z,99432.25
2022-12-27T14:01:03.034Z,99425.50
2022-12-27T14:03:29.640Z,99431.25
2022-12-27T14:09:15.912Z,99430.88
2022-12-27T14:11:45.624Z,99430.91
2022-12-27T14:14:18.243Z,99436.88
2022-12-27T14:16:47.881Z,99433.78
2022-12-27T14:19:32.992Z,99431.16
2022-12-27T14:22:11.476Z,99429.25
2022-12-27T14:24:56.415Z,99435.19
2022-12-27T14:27:25.806Z,99432.09
2022-12-27T14:30:04.799Z,99433.75
2022-12-27T14:32:41.943Z,99428.84
2022-12-27T14:35:20.813Z,99441.50
2022-12-27T14:37:53.201Z,99444.72
2022-12-27T14:40:38.329Z,99447.34
2022-12-27T14:43:07.619Z,99454.31
2022-12-27T14:45:36.977Z,99451.41
2022-12-27T14:48:03.467Z,99450.56
2022-12-27T14:50:55.665Z,99447.81
2022-12-27T14:53:37.559Z,99448.25
2022-12-27T14:56:22.878Z,99444.88
2022-12-27T14:58:49.346Z,99448.44
2022-12-27T15:01:15.921Z,99448.03
2022-12-27T15:03:49.966Z,99452.19
2022-12-27T15:06:16.757Z,99446.78
2022-12-27T15:08:43.260Z,99446.38
2022-12-27T15:11:31.292Z,99439.47
2022-12-27T15:14:17.681Z,99442.53
2022-12-27T15:16:47.203Z,99437.16
2022-12-27T15:19:13.829Z,99441.09
2022-12-27T15:21:41.892Z,99438.06
2022-12-27T15:24:11.710Z,99434.91
2022-12-27T15:26:47.364Z,99435.84
2022-12-27T15:29:25.560Z,99424.91
2022-12-27T15:32:11.772Z,99427.88
2022-12-27T15:34:48.621Z,99421.81
2022-12-27T15:37:34.005Z,99413.25
2022-12-27T15:40:00.566Z,99407.81
2022-12-27T15:42:36.535Z,99404.91
2022-12-27T15:45:07.726Z,99417.56
2022-12-27T15:47:46.774Z,99418.34
2022-12-27T15:50:19.146Z,99416.38
2022-12-27T15:53:06.546Z,99418.69
2022-12-27T15:55:51.223Z,99415.09
2022-12-27T15:58:20.872Z,99416.03
2022-12-27T16:01:07.306Z,99414.47
2022-12-27T16:03:40.000Z,99415.44
2022-12-27T16:06:07.857Z,99415.31
2022-12-27T16:08:43.308Z,99417.84
2022-12-27T16:11:14.048Z,99418.97
2022-12-27T16:13:50.214Z,99411.53
2022-12-27T16:16:29.155Z,99418.44
2022-12-27T16:19:06.703Z,99416.31
2022-12-27T16:21:36.951Z,99413.25
2022-12-27T16:24:04.807Z,99405.47
2022-12-27T16:26:32.291Z,99406.84
2022-12-27T16:29:02.036Z,99413.53
2022-12-27T16:31:29.961Z,99406.53
2022-12-27T16:34:00.487Z,99402.19
2022-12-27T16:36:30.894Z,99407.28
2022-12-27T16:39:00.289Z,99406.53
2022-12-27T16:41:29.951Z,99407.31
2022-12-27T16:44:02.183Z,99414.88
2022-12-27T16:46:44.324Z,99412.84
2022-12-27T16:49:29.729Z,99418.88
2022-12-27T16:52:22.446Z,99420.94
2022-12-27T16:54:52.377Z,99420.88
2022-12-27T16:57:29.545Z,99415.47
2022-12-27T16:59:59.153Z,99419.69
2022-12-27T17:02:40.860Z,99416.38
2022-12-27T17:05:16.664Z,99412.09
2022-12-27T17:07:44.792Z,99404.13
2022-12-27T17:10:34.934Z,99411.47
2022-12-27T17:13:20.161Z,99403.13
2022-12-27T17:16:04.792Z,99400.91
2022-12-27T17:18:35.853Z,99392.19
2022-12-27T17:21:16.146Z,99395.78
2022-12-27T17:23:43.608Z,99381.16
2022-12-27T17:26:19.298Z,99382.13
2022-12-27T17:28:49.741Z,99379.13
2022-12-27T17:31:19.062Z,99376.44
2022-12-27T17:33:53.683Z,99373.25
2022-12-27T17:36:23.376Z,99363.13
2022-12-27T17:39:10.138Z,99367.72
2022-12-27T17:42:14.244Z,99358.06
2022-12-27T17:44:47.242Z,99360.44
2022-12-27T17:47:25.888Z,99356.94
2022-12-27T17:49:52.446Z,99360.78
2022-12-27T17:52:37.972Z,99356.56
2022-12-27T17:55:33.055Z,99354.31
2022-12-27T17:58:00.263Z,99342.88
2022-12-27T18:00:29.271Z,99348.13
2022-12-27T18:02:55.797Z,99354.78
2022-12-27T18:05:27.270Z,99362.44
2022-12-27T18:08:04.307Z,99361.22
2022-12-27T18:10:31.714Z,99355.03
2022-12-27T18:12:59.014Z,99350.94
2022-12-27T18:15:26.559Z,99350.88
2022-12-27T18:17:54.209Z,99355.97
2022-12-27T18:20:41.065Z,99344.75
2022-12-27T18:23:08.921Z,99355.50
2022-12-27T18:25:44.716Z,99350.34
2022-12-27T18:28:32.578Z,99358.84
2022-12-27T18:31:12.653Z,99343.16
2022-12-27T18:33:58.576Z,99346.78
2022-12-27T18:36:26.871Z,99342.63
2022-12-27T18:38:55.715Z,99335.88
2022-12-27T18:41:22.264Z,99322.78
2022-12-27T18:43:49.403Z,99331.78
2022-12-27T18:46:42.137Z,99330.50
2022-12-27T18:49:16.540Z,99334.00
2022-12-27T18:51:43.079Z,99332.38
2022-12-27T18:54:28.092Z,99324.63
2022-12-27T18:56:54.888Z,99325.28
2022-12-27T18:59:28.843Z,99321.38
2022-12-27T19:01:59.722Z,99319.03
2022-12-27T19:04:35.113Z,99309.59
2022-12-27T19:07:07.972Z,99311.28
2022-12-27T19:09:35.895Z,99320.22
2022-12-27T19:12:03.421Z,99308.91
2022-12-27T19:14:34.370Z,99318.97
2022-12-27T19:17:04.039Z,99319.16
2022-12-27T19:19:33.638Z,99315.00
2022-12-27T19:22:00.351Z,99314.88
2022-12-27T19:24:27.459Z,99318.56
2022-12-27T19:26:54.399Z,99314.44
2022-12-27T19:29:22.974Z,99319.66
2022-12-27T19:31:54.114Z,99309.13
2022-12-27T19:34:20.647Z,99304.41
2022-12-27T19:36:47.230Z,99307.94
2022-12-27T19:39:27.795Z,99301.91
2022-12-27T19:42:01.358Z,99293.09
2022-12-27T19:44:28.330Z,99302.84
2022-12-27T19:46:54.940Z,99295.72
2022-12-27T19:49:42.579Z,99288.88
2022-12-27T19:52:11.909Z,99283.06
2022-12-27T19:54:38.399Z,99271.13
2022-12-27T19:57:05.224Z,99264.66
2022-12-27T19:59:31.838Z,99261.00
2022-12-27T20:01:58.601Z,99260.75
2022-12-27T20:04:25.264Z,99259.69
2022-12-27T20:06:51.846Z,99255.38
2022-12-27T20:09:19.298Z,99253.75
2022-12-27T20:11:45.926Z,99252.16
2022-12-27T20:14:14.683Z,99255.72
2022-12-27T20:16:41.545Z,99249.53
2022-12-27T20:19:09.171Z,99246.84
2022-12-27T20:21:35.704Z,99258.41
2022-12-27T20:24:02.243Z,99252.91
2022-12-27T20:26:29.494Z,99256.97
2022-12-27T20:28:56.008Z,99266.59
2022-12-27T20:31:22.660Z,99260.59
2022-12-27T20:33:52.746Z,99261.38
2022-12-27T20:36:19.305Z,99256.66
2022-12-27T20:38:45.840Z,99254.19
2022-12-27T20:41:13.629Z,99241.88
2022-12-27T20:43:40.186Z,99241.81
2022-12-27T20:46:07.518Z,99250.72
2022-12-27T20:48:36.744Z,99246.69
2022-12-27T20:51:10.259Z,99236.00
2022-12-27T20:53:36.837Z,99239.63
2022-12-27T20:56:03.940Z,99233.66
2022-12-27T20:58:30.994Z,99238.38
2022-12-27T21:00:57.671Z,99232.28
2022-12-27T21:03:24.281Z,99232.22
2022-12-27T21:05:50.837Z,99227.66
2022-12-27T21:08:17.409Z,99226.91
2022-12-27T21:10:44.154Z,99233.81
2022-12-27T21:13:10.811Z,99227.34
2022-12-27T21:15:42.194Z,99233.66
2022-12-27T21:18:09.120Z,99223.84
2022-12-27T21:20:35.658Z,99222.75
2022-12-27T21:23:02.199Z,99212.50
2022-12-27T21:25:28.751Z,99217.13
2022-12-27T21:27:55.252Z,99213.22
2022-12-27T21:30:21.790Z,99215.75
2022-12-27T21:32:48.359Z,99209.59
2022-12-27T21:35:15.009Z,99202.78
2022-12-27T21:37:41.968Z,99212.06
2022-12-27T21:40:08.953Z,99214.16
2022-12-27T21:42:35.467Z,99213.50
2022-12-27T21:45:02.020Z,99219.69
2022-12-27T21:47:29.338Z,99218.09
2022-12-27T21:49:56.050Z,99224.53
2022-12-27T21:52:22.617Z,99226.31
2022-12-27T21:54:49.263Z,99220.13
2022-12-27T21:57:16.357Z,99219.97
2022-12-27T21:59:42.851Z,99209.31
2022-12-27T22:02:09.738Z,99207.41
2022-12-27T22:04:36.318Z,99202.50
2022-12-27T22:07:02.861Z,99211.63
2022-12-27T22:09:29.413Z,99200.16
2022-12-27T22:11:55.891Z,99201.66
2022-12-27T22:14:25.559Z,99198.47
2022-12-27T22:16:52.935Z,99189.31
2022-12-27T22:19:19.492Z,99193.38
2022-12-27T22:21:46.037Z,99194.44
2022-12-27T22:24:13.174Z,99193.84
2022-12-27T22:26:39.747Z,99203.22
2022-12-27T22:29:07.911Z,99186.41
2022-12-27T22:31:38.343Z,99186.25
2022-12-27T22:34:05.191Z,99187.13
2022-12-27T22:36:31.824Z,99186.88
2022-12-27T22:38:58.895Z,99191.19
2022-12-27T22:41:26.869Z,99189.16
2022-12-27T22:43:54.328Z,99176.69
2022-12-27T22:46:20.987Z,99173.34
2022-12-27T22:48:51.550Z,99168.00
2022-12-27T22:51:21.980Z,99161.19
2022-12-27T22:53:48.943Z,99163.31
2022-12-27T22:56:17.225Z,99155.97
2022-12-27T22:58:43.799Z,99152.09
2022-12-27T23:01:13.966Z,99152.34
2022-12-27T23:03:40.852Z,99161.09
2022-12-27T23:06:07.548Z,99158.56
2022-12-27T23:08:34.090Z,99160.28
2022-12-27T23:11:04.234Z,99156.66
2022-12-27T23:13:30.742Z,99156.81
2022-12-27T23:15:58.279Z,99158.44
2022-12-27T23:18:25.228Z,99164.72
2022-12-27T23:21:21.224Z,99151.41
2022-12-27T23:23:38.396Z,99148.69
2022-12-27T23:26:06.733Z,99141.44
2022-12-27T23:28:40.081Z,99143.97
2022-12-27T23:31:06.782Z,99140.25
2022-12-27T23:33:33.712Z,99136.47
2022-12-27T23:36:00.578Z,99130.94
2022-12-27T23:38:32.075Z,99131.63
2022-12-27T23:40:59.415Z,99127.72
2022-12-27T23:46:29.657Z,99137.34
2022-12-27T23:48:56.965Z,99135.28
2022-12-27T23:51:23.817Z,99135.97
2022-12-27T23:53:50.483Z,99135.03
2022-12-27T23:56:21.229Z,99133.94
2022-12-27T23:58:48.267Z,99127.47
